Afton, Michigan
Current Conditions -  °F | °C
As of 3:56 AM on Wednesday 22 Oct 2014 (Local Time) from KSLH Reporting Station
Overcast Overcast  
Wind Chill: 31°   Ceiling: 2300
Heat Index: 35°   Visibility: 10mi
Dew Point: 32°   Wind: 5mph
Humidity: 87%   Direction: 130°SE
Pressure: 30.34"   Gusts: NA
Location:  45.36°N, 84.47°W
Report Text: KSLH 220756Z AUTO 13004KT 10SM OVC023 02/00 A3034 RMK AO2 T00190000
Loading
Personal Weather Stations






























Interactive Weather Map
Tropical Storm Tracking
New forecast layout! Learn more

10-Day Weather Forecast

Advertisements
Track Severe Weather on mobile